createdAt,value
2023-03-26T00:00:10.591Z,41.27
2023-03-26T00:01:11.623Z,40.71
2023-03-26T00:04:43.236Z,43.16
2023-03-26T00:05:44.454Z,50.66
2023-03-26T00:06:43.230Z,45.70
2023-03-26T00:07:43.209Z,49.53
2023-03-26T00:08:43.235Z,42.23
2023-03-26T00:09:43.180Z,41.62
2023-03-26T00:10:43.166Z,41.58
2023-03-26T00:11:43.179Z,41.53
2023-03-26T00:12:43.147Z,45.36
2023-03-26T00:13:43.264Z,41.37
2023-03-26T00:14:43.126Z,41.26
2023-03-26T00:15:43.120Z,42.06
2023-03-26T00:16:43.147Z,40.82
2023-03-26T00:17:43.133Z,41.98
2023-03-26T00:18:43.089Z,45.03
2023-03-26T00:19:43.096Z,47.22
2023-03-26T00:20:43.084Z,47.54
2023-03-26T00:21:43.061Z,44.36
2023-03-26T00:22:43.035Z,47.20
2023-03-26T00:23:43.028Z,48.19
2023-03-26T00:24:43.011Z,41.27
2023-03-26T00:25:43.003Z,41.14
2023-03-26T00:26:43.012Z,42.15
2023-03-26T00:27:43.001Z,42.13
2023-03-26T00:28:42.967Z,41.96
2023-03-26T00:29:42.965Z,41.51
2023-03-26T00:30:42.968Z,41.39
2023-03-26T00:31:42.956Z,40.96
2023-03-26T00:32:42.980Z,41.02
2023-03-26T00:33:42.917Z,41.43
2023-03-26T00:34:42.911Z,41.53
2023-03-26T00:35:42.907Z,41.80
2023-03-26T00:36:42.895Z,42.02
2023-03-26T00:37:42.881Z,42.99
2023-03-26T00:38:42.873Z,42.33
2023-03-26T00:39:42.863Z,42.05
2023-03-26T00:40:42.838Z,41.18
2023-03-26T00:41:42.870Z,41.62
2023-03-26T00:42:42.814Z,42.05
2023-03-26T00:43:42.812Z,43.00
2023-03-26T00:44:42.796Z,45.57
2023-03-26T00:45:42.879Z,44.89
2023-03-26T00:46:42.875Z,41.28
2023-03-26T00:47:42.845Z,41.65
2023-03-26T00:48:45.437Z,44.50
2023-03-26T00:49:42.745Z,43.21
2023-03-26T00:50:42.732Z,41.88
2023-03-26T00:51:42.742Z,41.30
2023-03-26T00:52:42.715Z,41.94
2023-03-26T00:53:42.704Z,42.72
2023-03-26T00:54:42.689Z,41.82
2023-03-26T00:55:42.685Z,41.28
2023-03-26T00:56:42.713Z,41.09
2023-03-26T00:57:42.661Z,41.25
2023-03-26T00:58:42.677Z,41.04
2023-03-26T00:59:42.641Z,40.97
2023-03-26T01:00:43.208Z,41.41
2023-03-26T01:01:42.653Z,46.38
2023-03-26T01:02:42.716Z,42.34
2023-03-26T01:03:50.173Z,42.67
2023-03-26T01:04:43.609Z,43.14
2023-03-26T01:05:42.594Z,41.59
2023-03-26T01:06:42.564Z,42.67
2023-03-26T01:07:42.572Z,42.45
2023-03-26T01:08:42.558Z,44.82
2023-03-26T01:09:42.548Z,43.35
2023-03-26T01:10:42.522Z,42.47
2023-03-26T01:11:42.514Z,41.69
2023-03-26T01:12:42.510Z,40.93
2023-03-26T01:13:42.488Z,41.26
2023-03-26T01:14:42.477Z,43.11
2023-03-26T01:15:42.511Z,43.75
2023-03-26T01:16:42.469Z,43.34
2023-03-26T01:17:42.512Z,44.72
2023-03-26T01:18:42.435Z,46.76
2023-03-26T01:19:42.436Z,44.20
2023-03-26T01:20:42.415Z,45.28
2023-03-26T01:21:42.408Z,42.63
2023-03-26T01:22:42.408Z,41.61
2023-03-26T01:23:42.387Z,41.12
2023-03-26T01:24:42.372Z,40.38
2023-03-26T01:25:42.364Z,41.33
2023-03-26T01:26:42.348Z,41.93
2023-03-26T01:27:42.354Z,41.84
2023-03-26T01:28:42.327Z,40.08
2023-03-26T01:29:42.324Z,39.84
2023-03-26T01:30:42.375Z,40.26
2023-03-26T01:31:42.296Z,40.12
2023-03-26T01:32:42.366Z,40.61
2023-03-26T01:33:42.332Z,41.11
2023-03-26T01:34:42.259Z,41.46
2023-03-26T01:35:42.265Z,40.95
2023-03-26T01:36:42.238Z,40.65
2023-03-26T01:37:42.242Z,40.98
2023-03-26T01:38:42.216Z,41.07
2023-03-26T01:39:42.361Z,40.70
2023-03-26T01:40:42.206Z,41.29
2023-03-26T01:41:42.188Z,41.62
2023-03-26T01:42:42.182Z,41.71
2023-03-26T01:43:42.205Z,39.94
2023-03-26T01:44:42.156Z,40.12
2023-03-26T01:45:42.146Z,40.42
2023-03-26T01:46:42.176Z,39.48
2023-03-26T01:47:42.175Z,39.56
2023-03-26T01:48:42.112Z,40.19
2023-03-26T01:49:42.107Z,42.22
2023-03-26T01:50:42.092Z,41.51
2023-03-26T01:51:42.087Z,40.87
2023-03-26T01:52:42.084Z,46.96
2023-03-26T01:53:42.063Z,47.57
2023-03-26T01:54:42.053Z,41.36
2023-03-26T01:55:42.046Z,42.18
2023-03-26T01:56:42.068Z,43.14
2023-03-26T01:57:42.040Z,48.95
2023-03-26T01:58:42.029Z,48.16
2023-03-26T01:59:42.003Z,60.11
2023-03-26T02:00:42.017Z,54.01
2023-03-26T02:01:42.059Z,51.60
2023-03-26T02:02:42.089Z,42.49
2023-03-26T02:03:42.029Z,40.77
2023-03-26T02:04:41.962Z,39.46
2023-03-26T02:05:41.945Z,39.30
2023-03-26T02:06:41.938Z,39.52
2023-03-26T02:07:41.917Z,43.67
2023-03-26T02:08:41.925Z,40.05
2023-03-26T02:09:41.899Z,42.51
2023-03-26T02:10:41.891Z,41.89
2023-03-26T02:11:41.902Z,46.71
2023-03-26T02:12:41.875Z,42.54
2023-03-26T02:13:41.879Z,40.38
2023-03-26T02:14:41.857Z,40.23
2023-03-26T02:15:41.839Z,40.89
2023-03-26T02:16:41.870Z,41.45
2023-03-26T02:17:41.851Z,41.18
2023-03-26T02:18:41.851Z,57.99
2023-03-26T02:19:41.803Z,58.13
2023-03-26T02:20:41.796Z,58.69
2023-03-26T02:21:41.778Z,62.31
2023-03-26T02:22:41.776Z,57.46
2023-03-26T02:23:41.779Z,54.96
2023-03-26T02:24:41.751Z,47.69
2023-03-26T02:25:41.743Z,52.80
2023-03-26T02:26:41.730Z,53.25
2023-03-26T02:27:41.716Z,53.04
2023-03-26T02:28:41.722Z,56.29
2023-03-26T02:29:41.695Z,59.86
2023-03-26T02:30:41.689Z,62.07
2023-03-26T02:31:41.689Z,61.93
2023-03-26T02:32:41.697Z,56.65
2023-03-26T02:33:41.668Z,54.23
2023-03-26T02:34:41.657Z,48.44
2023-03-26T02:35:41.727Z,46.81
2023-03-26T02:36:41.683Z,44.52
2023-03-26T02:37:41.618Z,43.66
2023-03-26T02:38:41.618Z,43.40
2023-03-26T02:39:41.601Z,43.22
2023-03-26T02:40:41.626Z,43.19
2023-03-26T02:41:41.582Z,48.01
2023-03-26T02:42:41.569Z,43.44
2023-03-26T02:43:41.575Z,43.01
2023-03-26T02:44:41.550Z,42.56
2023-03-26T02:45:41.584Z,42.82
2023-03-26T02:46:41.527Z,42.53
2023-03-26T02:47:41.580Z,42.18
2023-03-26T02:48:41.528Z,42.20
2023-03-26T02:49:41.503Z,42.64
2023-03-26T02:50:41.485Z,48.31
2023-03-26T02:51:41.483Z,42.44
2023-03-26T02:52:41.470Z,44.41
2023-03-26T02:53:41.495Z,48.87
2023-03-26T02:54:41.452Z,41.33
2023-03-26T02:55:41.440Z,40.80
2023-03-26T02:56:41.445Z,41.45
2023-03-26T02:57:41.421Z,41.58
2023-03-26T02:58:41.425Z,41.50
2023-03-26T02:59:41.406Z,41.35
2023-03-26T03:00:41.394Z,45.31
2023-03-26T03:01:41.416Z,45.69
2023-03-26T03:02:41.471Z,41.79
2023-03-26T03:03:41.374Z,41.33
2023-03-26T03:04:41.354Z,40.90
2023-03-26T03:05:41.341Z,42.05
2023-03-26T03:06:41.337Z,43.63
2023-03-26T03:07:41.319Z,42.83
2023-03-26T03:08:41.318Z,41.31
2023-03-26T03:09:41.304Z,41.23
2023-03-26T03:10:41.291Z,41.09
2023-03-26T03:11:41.292Z,41.02
2023-03-26T03:12:41.270Z,41.48
2023-03-26T03:13:41.274Z,41.46
2023-03-26T03:14:41.251Z,41.70
2023-03-26T03:15:41.246Z,41.84
2023-03-26T03:16:41.288Z,41.04
2023-03-26T03:17:41.265Z,41.53
2023-03-26T03:18:41.227Z,40.95
2023-03-26T03:19:41.217Z,40.36
2023-03-26T03:20:41.277Z,39.54
2023-03-26T03:21:41.190Z,39.86
2023-03-26T03:22:41.185Z,41.68
2023-03-26T03:23:41.171Z,41.68
2023-03-26T03:24:41.166Z,41.55
2023-03-26T03:25:41.164Z,49.81
2023-03-26T03:26:41.135Z,50.28
2023-03-26T03:27:41.145Z,46.77
2023-03-26T03:28:41.116Z,44.79
2023-03-26T03:29:41.119Z,43.51
2023-03-26T03:30:41.122Z,48.62
2023-03-26T03:31:41.093Z,43.04
2023-03-26T03:32:41.108Z,42.12
2023-03-26T03:33:41.072Z,42.57
2023-03-26T03:34:41.070Z,44.18
2023-03-26T03:35:41.092Z,42.59
2023-03-26T03:36:41.047Z,42.20
2023-03-26T03:37:41.031Z,41.00
2023-03-26T03:38:41.017Z,41.13
2023-03-26T03:39:41.036Z,41.77
2023-03-26T03:40:40.993Z,41.85
2023-03-26T03:41:40.991Z,41.56
2023-03-26T03:42:40.973Z,40.24
2023-03-26T03:43:40.965Z,39.72
2023-03-26T03:44:40.970Z,40.25
2023-03-26T03:45:42.107Z,40.58
2023-03-26T03:46:42.130Z,40.73
2023-03-26T03:47:42.112Z,41.55
2023-03-26T03:48:42.039Z,42.60
2023-03-26T03:49:42.045Z,42.87
2023-03-26T03:50:42.062Z,42.29
2023-03-26T03:51:42.025Z,41.69
2023-03-26T03:52:42.004Z,46.49
2023-03-26T03:53:42.019Z,44.18
2023-03-26T03:54:41.996Z,44.53
2023-03-26T03:55:41.981Z,43.32
2023-03-26T03:56:41.981Z,48.88
2023-03-26T03:57:41.942Z,44.55
2023-03-26T03:58:41.943Z,44.48
2023-03-26T03:59:47.368Z,44.12
2023-03-26T04:00:41.933Z,44.39
2023-03-26T04:01:41.910Z,45.16
2023-03-26T04:02:41.987Z,44.72
2023-03-26T04:03:42.020Z,52.01
2023-03-26T04:04:41.934Z,43.84
2023-03-26T04:05:41.864Z,43.47
2023-03-26T04:06:41.871Z,44.26
2023-03-26T04:07:41.878Z,44.75
2023-03-26T04:08:41.835Z,48.24
2023-03-26T04:09:41.849Z,48.19
2023-03-26T04:10:41.818Z,44.60
2023-03-26T04:11:41.797Z,43.52
2023-03-26T04:12:41.790Z,44.04
2023-03-26T04:13:41.789Z,45.34
2023-03-26T04:14:41.784Z,47.28
2023-03-26T04:15:41.824Z,49.45
2023-03-26T04:16:41.747Z,46.21
2023-03-26T04:17:42.963Z,49.08
2023-03-26T04:18:41.735Z,47.17
2023-03-26T04:19:41.741Z,46.32
2023-03-26T04:20:41.743Z,49.14
2023-03-26T04:21:41.695Z,46.78
2023-03-26T04:22:41.714Z,48.73
2023-03-26T04:23:41.673Z,50.03
2023-03-26T04:24:41.670Z,48.97
2023-03-26T04:25:41.679Z,49.13
2023-03-26T04:26:41.652Z,49.80
2023-03-26T04:27:41.676Z,51.81
2023-03-26T04:28:41.629Z,53.09
2023-03-26T04:29:41.617Z,50.64
2023-03-26T04:30:41.610Z,48.35
2023-03-26T04:31:41.622Z,48.99
2023-03-26T04:32:41.607Z,52.38
2023-03-26T04:33:41.570Z,54.66
2023-03-26T04:34:41.579Z,45.68
2023-03-26T04:35:41.759Z,50.14
2023-03-26T04:36:41.552Z,52.47
2023-03-26T04:37:41.544Z,53.38
2023-03-26T04:38:41.534Z,53.97
2023-03-26T04:39:41.522Z,55.51
2023-03-26T04:40:41.517Z,47.06
2023-03-26T04:41:41.490Z,47.22
2023-03-26T04:42:41.532Z,46.80
2023-03-26T04:43:41.480Z,46.29
2023-03-26T04:44:41.485Z,49.16
2023-03-26T04:45:41.482Z,50.24
2023-03-26T04:46:41.473Z,45.29
2023-03-26T04:47:41.464Z,45.40
2023-03-26T04:48:41.423Z,44.79
2023-03-26T04:49:41.424Z,44.21
2023-03-26T04:50:41.422Z,45.92
2023-03-26T04:51:41.396Z,44.97
2023-03-26T04:52:43.273Z,46.54
2023-03-26T04:53:41.374Z,47.19
2023-03-26T04:54:41.505Z,55.02
2023-03-26T04:55:41.357Z,45.64
2023-03-26T04:56:41.351Z,41.82
2023-03-26T04:57:41.344Z,46.89
2023-03-26T04:58:41.331Z,43.94
2023-03-26T04:59:41.315Z,43.44
2023-03-26T05:00:41.356Z,43.59
2023-03-26T05:01:41.342Z,44.23
2023-03-26T05:02:41.328Z,44.75
2023-03-26T05:03:41.456Z,43.23
2023-03-26T05:04:41.281Z,43.77
2023-03-26T05:05:41.264Z,42.15
2023-03-26T05:06:41.240Z,48.13
2023-03-26T05:07:41.240Z,44.79
2023-03-26T05:08:41.222Z,45.88
2023-03-26T05:09:41.220Z,46.66
2023-03-26T05:10:41.219Z,47.25
2023-03-26T05:11:42.046Z,46.95
2023-03-26T05:12:41.181Z,45.07
2023-03-26T05:13:41.184Z,46.83
2023-03-26T05:14:41.160Z,44.63
2023-03-26T05:15:41.156Z,44.60
2023-03-26T05:16:41.212Z,44.00
2023-03-26T05:17:41.190Z,44.31
2023-03-26T05:18:41.116Z,44.50
2023-03-26T05:19:41.117Z,45.35
2023-03-26T05:20:41.118Z,47.26
2023-03-26T05:21:41.094Z,46.54
2023-03-26T05:22:41.094Z,46.36
2023-03-26T05:23:41.079Z,43.22
2023-03-26T05:24:41.076Z,47.83
2023-03-26T05:25:41.059Z,47.67
2023-03-26T05:26:41.054Z,50.50
2023-03-26T05:27:41.043Z,47.06
2023-03-26T05:28:41.021Z,45.34
2023-03-26T05:29:41.022Z,48.80
2023-03-26T05:30:41.023Z,51.54
2023-03-26T05:31:40.996Z,45.94
2023-03-26T05:32:41.048Z,49.52
2023-03-26T05:33:41.064Z,47.17
2023-03-26T05:34:40.972Z,45.15
2023-03-26T05:35:40.970Z,43.69
2023-03-26T05:36:40.936Z,43.28
2023-03-26T05:37:41.928Z,44.60
2023-03-26T05:38:40.919Z,48.59
2023-03-26T05:39:40.920Z,45.97
2023-03-26T05:40:40.925Z,48.81
2023-03-26T05:41:40.900Z,50.19
2023-03-26T05:42:40.883Z,47.92
2023-03-26T05:43:40.871Z,45.71
2023-03-26T05:44:40.874Z,47.83
2023-03-26T05:45:40.934Z,47.96
2023-03-26T05:46:40.847Z,46.91
2023-03-26T05:47:40.864Z,45.86
2023-03-26T05:48:40.823Z,46.23
2023-03-26T05:49:40.817Z,44.47
2023-03-26T05:50:40.819Z,45.82
2023-03-26T05:51:40.793Z,45.83
2023-03-26T05:52:40.790Z,45.59
2023-03-26T05:53:40.779Z,46.00
2023-03-26T05:54:40.771Z,46.24
2023-03-26T05:55:40.792Z,46.05
2023-03-26T05:56:40.750Z,47.00
2023-03-26T05:57:40.736Z,47.02
2023-03-26T05:58:40.719Z,45.83
2023-03-26T05:59:40.727Z,45.92
2023-03-26T06:00:40.715Z,46.22
2023-03-26T06:01:40.697Z,48.73
2023-03-26T06:02:40.714Z,45.53
2023-03-26T06:03:40.735Z,47.63
2023-03-26T06:04:40.822Z,50.55
2023-03-26T06:05:40.670Z,46.49
2023-03-26T06:06:40.642Z,45.36
2023-03-26T06:07:40.640Z,48.17
2023-03-26T06:08:40.641Z,52.15
2023-03-26T06:09:40.630Z,46.45
2023-03-26T06:10:40.608Z,50.26
2023-03-26T06:11:40.608Z,46.09
2023-03-26T06:12:40.589Z,46.52
2023-03-26T06:13:40.573Z,49.10
2023-03-26T06:14:40.564Z,47.11
2023-03-26T06:15:40.579Z,49.24
2023-03-26T06:16:40.570Z,46.10
2023-03-26T06:17:40.621Z,51.47
2023-03-26T06:18:40.594Z,44.93
2023-03-26T06:19:40.518Z,46.70
2023-03-26T06:20:40.507Z,48.77
2023-03-26T06:21:40.516Z,45.64
2023-03-26T06:22:40.490Z,48.26
2023-03-26T06:23:40.475Z,44.79
2023-03-26T06:24:40.496Z,48.18
2023-03-26T06:25:40.455Z,45.24
2023-03-26T06:26:40.449Z,44.82
2023-03-26T06:27:41.440Z,48.01
2023-03-26T06:28:40.428Z,44.40
2023-03-26T06:29:40.410Z,45.27
2023-03-26T06:30:40.413Z,45.61
2023-03-26T06:31:40.451Z,47.49
2023-03-26T06:32:40.412Z,47.97
2023-03-26T06:33:40.377Z,44.89
2023-03-26T06:34:40.362Z,44.67
2023-03-26T06:35:40.366Z,47.84
2023-03-26T06:36:40.354Z,48.79
2023-03-26T06:37:40.335Z,47.44
2023-03-26T06:38:40.331Z,46.29
2023-03-26T06:39:40.320Z,50.16
2023-03-26T06:40:40.305Z,44.35
2023-03-26T06:41:40.312Z,45.37
2023-03-26T06:43:08.832Z,51.40
2023-03-26T06:43:41.277Z,48.36
2023-03-26T06:44:40.270Z,52.53
2023-03-26T06:45:40.249Z,45.05
2023-03-26T06:46:40.331Z,46.91
2023-03-26T06:47:40.247Z,46.01
2023-03-26T06:48:40.232Z,47.37
2023-03-26T06:49:40.213Z,45.04
2023-03-26T06:50:40.207Z,43.04
2023-03-26T06:51:40.206Z,47.53
2023-03-26T06:52:40.189Z,44.88
2023-03-26T06:53:40.170Z,43.86
2023-03-26T06:54:40.164Z,51.23
2023-03-26T06:55:40.164Z,43.94
2023-03-26T06:56:40.173Z,49.29
2023-03-26T06:57:40.140Z,47.46
2023-03-26T06:58:40.125Z,52.08
2023-03-26T06:59:40.118Z,48.51
2023-03-26T07:00:40.145Z,48.06
2023-03-26T07:01:40.167Z,45.47
2023-03-26T07:02:40.114Z,45.67
2023-03-26T07:03:40.101Z,49.52
2023-03-26T07:04:40.062Z,46.64
2023-03-26T07:05:40.057Z,48.67
2023-03-26T07:06:40.055Z,44.34
2023-03-26T07:07:45.837Z,47.85
2023-03-26T07:08:41.024Z,47.08
2023-03-26T07:09:40.010Z,47.26
2023-03-26T07:10:40.012Z,46.62
2023-03-26T07:11:40.004Z,45.66
2023-03-26T07:12:39.997Z,46.92
2023-03-26T07:13:39.987Z,49.32
2023-03-26T07:14:39.962Z,50.80
2023-03-26T07:15:39.960Z,48.84
2023-03-26T07:16:39.987Z,50.24
2023-03-26T07:17:39.971Z,48.59
2023-03-26T07:18:39.927Z,45.08
2023-03-26T07:19:39.913Z,51.70
2023-03-26T07:20:39.909Z,47.55
2023-03-26T07:21:39.910Z,49.89
2023-03-26T07:22:39.905Z,50.46
2023-03-26T07:23:39.871Z,46.36
2023-03-26T07:24:39.892Z,50.52
2023-03-26T07:25:39.864Z,50.89
2023-03-26T07:26:39.844Z,48.10
2023-03-26T07:27:39.858Z,51.18
2023-03-26T07:28:39.836Z,44.17
2023-03-26T07:29:39.816Z,43.04
2023-03-26T07:30:39.818Z,43.14
2023-03-26T07:31:39.855Z,47.70
2023-03-26T07:32:39.868Z,52.39
2023-03-26T07:33:39.784Z,43.72
2023-03-26T07:34:39.779Z,42.67
2023-03-26T07:35:39.826Z,42.91
2023-03-26T07:36:39.748Z,46.26
2023-03-26T07:37:39.755Z,43.29
2023-03-26T07:38:39.741Z,48.62
2023-03-26T07:39:39.722Z,52.22
2023-03-26T07:40:39.714Z,49.59
2023-03-26T07:41:39.700Z,50.12
2023-03-26T07:42:39.700Z,50.14
2023-03-26T07:43:39.688Z,52.40
2023-03-26T07:44:39.672Z,45.91
2023-03-26T07:45:39.708Z,47.45
2023-03-26T07:46:39.656Z,53.14
2023-03-26T07:47:39.644Z,54.32
2023-03-26T07:48:39.637Z,46.63
2023-03-26T07:49:39.613Z,47.71
2023-03-26T07:50:39.609Z,48.59
2023-03-26T07:51:39.597Z,53.84
2023-03-26T07:52:39.655Z,54.09
2023-03-26T07:53:39.588Z,48.43
2023-03-26T07:54:39.572Z,49.86
2023-03-26T07:55:39.565Z,46.31
2023-03-26T07:56:39.678Z,50.65
2023-03-26T07:57:39.605Z,53.57
2023-03-26T07:58:39.540Z,49.12
2023-03-26T07:59:39.559Z,50.55
2023-03-26T08:00:39.521Z,48.74
2023-03-26T08:01:39.511Z,50.86
2023-03-26T08:02:39.534Z,53.82
2023-03-26T08:03:39.611Z,48.54
2023-03-26T08:04:39.583Z,44.17
2023-03-26T08:05:39.473Z,44.87
2023-03-26T08:06:39.577Z,52.32
2023-03-26T08:07:39.458Z,52.79
2023-03-26T08:08:39.443Z,49.96
2023-03-26T08:09:39.421Z,46.96
2023-03-26T08:10:39.418Z,49.88
2023-03-26T08:11:39.401Z,48.09
2023-03-26T08:12:39.389Z,50.49
2023-03-26T08:13:39.405Z,50.96
2023-03-26T08:14:39.370Z,51.15
2023-03-26T08:15:39.386Z,48.99
2023-03-26T08:16:39.350Z,53.67
2023-03-26T08:17:39.411Z,47.73
2023-03-26T08:18:39.334Z,50.75
2023-03-26T08:19:39.325Z,48.01
2023-03-26T08:20:39.309Z,50.90
2023-03-26T08:21:39.300Z,44.92
2023-03-26T08:22:39.291Z,48.56
2023-03-26T08:23:50.501Z,49.57
2023-03-26T08:24:40.268Z,49.05
2023-03-26T08:25:39.310Z,47.56
2023-03-26T08:26:39.258Z,54.68
2023-03-26T08:27:39.234Z,47.42
2023-03-26T08:28:39.233Z,44.84
2023-03-26T08:29:39.245Z,45.32
2023-03-26T08:30:39.225Z,50.16
2023-03-26T08:31:39.275Z,48.83
2023-03-26T08:32:39.210Z,50.28
2023-03-26T08:33:39.213Z,49.59
2023-03-26T08:34:39.157Z,44.48
2023-03-26T08:35:39.220Z,48.24
2023-03-26T08:36:39.150Z,49.56
2023-03-26T08:37:39.141Z,46.83
2023-03-26T08:38:39.138Z,46.93
2023-03-26T08:39:39.113Z,49.94
2023-03-26T08:40:39.104Z,51.30
2023-03-26T08:41:39.089Z,43.72
2023-03-26T08:42:39.077Z,43.76
2023-03-26T08:43:39.084Z,46.87
2023-03-26T08:44:39.072Z,47.32
2023-03-26T08:45:39.057Z,53.10
2023-03-26T08:46:39.055Z,54.26
2023-03-26T08:47:39.059Z,48.36
2023-03-26T08:48:39.038Z,53.49
2023-03-26T08:49:39.018Z,48.86
2023-03-26T08:50:39.010Z,47.81
2023-03-26T08:51:38.997Z,46.50
2023-03-26T08:52:38.995Z,46.88
2023-03-26T08:53:38.988Z,49.14
2023-03-26T08:54:38.978Z,46.01
2023-03-26T08:55:38.963Z,50.35
2023-03-26T08:56:39.131Z,50.64
2023-03-26T08:57:38.938Z,46.71
2023-03-26T08:58:38.949Z,48.44
2023-03-26T08:59:38.915Z,49.07
2023-03-26T09:00:38.914Z,54.02
2023-03-26T09:01:38.975Z,50.56
2023-03-26T09:02:38.917Z,51.60
2023-03-26T09:03:38.905Z,57.14
2023-03-26T09:04:38.874Z,47.73
2023-03-26T09:05:38.860Z,50.87
2023-03-26T09:06:38.848Z,48.25
2023-03-26T09:07:38.886Z,49.96
2023-03-26T09:08:38.825Z,49.58
2023-03-26T09:09:39.827Z,53.70
2023-03-26T09:10:38.813Z,49.96
2023-03-26T09:11:38.796Z,55.13
2023-03-26T09:12:38.783Z,52.74
2023-03-26T09:13:38.775Z,52.15
2023-03-26T09:14:38.771Z,47.98
2023-03-26T09:15:38.758Z,50.90
2023-03-26T09:16:38.797Z,45.24
2023-03-26T09:17:38.769Z,53.08
2023-03-26T09:18:38.727Z,48.66
2023-03-26T09:19:38.720Z,51.69
2023-03-26T09:20:38.697Z,46.88
2023-03-26T09:21:38.705Z,56.21
2023-03-26T09:22:38.688Z,52.54
2023-03-26T09:23:38.677Z,52.88
2023-03-26T09:24:38.698Z,49.99
2023-03-26T09:25:38.646Z,50.47
2023-03-26T09:26:39.639Z,51.00
2023-03-26T09:27:38.633Z,50.99
2023-03-26T09:28:38.620Z,53.39
2023-03-26T09:29:38.624Z,51.12
2023-03-26T09:30:38.621Z,54.06
2023-03-26T09:31:38.663Z,51.88
2023-03-26T09:32:38.658Z,50.01
2023-03-26T09:33:38.581Z,51.22
2023-03-26T09:34:38.625Z,51.67
2023-03-26T09:35:38.596Z,55.44
2023-03-26T09:36:38.707Z,54.61
2023-03-26T09:37:56.229Z,55.03
2023-03-26T09:38:39.545Z,52.61
2023-03-26T09:39:38.557Z,51.22
2023-03-26T09:40:38.531Z,50.62
2023-03-26T09:41:38.511Z,49.93
2023-03-26T09:42:38.508Z,48.36
2023-03-26T09:43:38.484Z,49.43
2023-03-26T09:44:38.505Z,49.96
2023-03-26T09:45:38.513Z,50.72
2023-03-26T09:46:38.450Z,49.24
2023-03-26T09:47:38.478Z,52.38
2023-03-26T09:48:38.453Z,51.59
2023-03-26T09:49:38.436Z,50.33
2023-03-26T09:50:38.427Z,53.06
2023-03-26T09:51:38.428Z,50.44
2023-03-26T09:52:38.410Z,52.66
2023-03-26T09:53:38.411Z,50.65
2023-03-26T09:54:38.406Z,51.98
2023-03-26T09:55:38.381Z,50.01
2023-03-26T09:56:39.496Z,53.38
2023-03-26T09:57:39.371Z,51.72
2023-03-26T09:58:38.336Z,56.81
2023-03-26T09:59:38.348Z,50.93
2023-03-26T10:00:38.339Z,52.85
2023-03-26T10:01:38.410Z,56.11
2023-03-26T10:02:46.107Z,57.57
2023-03-26T10:03:39.268Z,54.18
2023-03-26T10:04:38.402Z,56.17
2023-03-26T10:05:38.256Z,54.26
2023-03-26T10:06:38.258Z,53.84
2023-03-26T10:07:38.254Z,54.16
2023-03-26T10:08:38.237Z,57.24
2023-03-26T10:09:38.231Z,55.53
2023-03-26T10:10:38.213Z,54.78
2023-03-26T10:11:38.200Z,55.20
2023-03-26T10:12:38.253Z,52.87
2023-03-26T10:13:38.185Z,57.27
2023-03-26T10:14:38.174Z,49.67
2023-03-26T10:15:38.160Z,50.04
2023-03-26T10:16:38.197Z,53.42
2023-03-26T10:17:38.200Z,51.64
2023-03-26T10:18:38.134Z,55.74
2023-03-26T10:19:39.053Z,54.74
2023-03-26T10:20:38.161Z,55.44
2023-03-26T10:21:38.154Z,55.76
2023-03-26T10:22:38.144Z,55.15
2023-03-26T10:23:38.129Z,58.10
2023-03-26T10:24:38.098Z,57.01
2023-03-26T10:25:38.098Z,57.60
2023-03-26T10:26:38.098Z,57.08
2023-03-26T10:27:38.155Z,55.75
2023-03-26T10:28:38.051Z,59.61
2023-03-26T10:29:38.069Z,58.33
2023-03-26T10:30:38.113Z,59.53
2023-03-26T10:31:38.033Z,58.49
2023-03-26T10:32:38.162Z,60.10
2023-03-26T10:33:38.012Z,60.08
2023-03-26T10:34:37.998Z,60.33
2023-03-26T10:35:38.070Z,60.76
2023-03-26T10:36:37.975Z,60.85
2023-03-26T10:37:37.984Z,62.99
2023-03-26T10:38:37.968Z,64.23
2023-03-26T10:39:39.434Z,64.35
2023-03-26T10:40:38.965Z,64.44
2023-03-26T10:41:37.912Z,61.74
2023-03-26T10:42:37.903Z,61.06
2023-03-26T10:43:37.894Z,60.26
2023-03-26T10:44:37.885Z,59.31
2023-03-26T10:45:37.927Z,57.78
2023-03-26T10:46:37.900Z,57.89
2023-03-26T10:47:37.933Z,55.13
2023-03-26T10:48:37.855Z,57.59
2023-03-26T10:49:37.897Z,57.29
2023-03-26T10:50:37.856Z,57.18
2023-03-26T10:51:37.857Z,58.30
2023-03-26T10:52:37.875Z,58.39
2023-03-26T10:53:37.835Z,56.58
2023-03-26T10:54:37.805Z,56.38
2023-03-26T10:55:37.810Z,54.76
2023-03-26T10:56:37.816Z,56.44
2023-03-26T10:57:37.782Z,56.95
2023-03-26T10:58:48.462Z,58.20
2023-03-26T10:59:38.762Z,57.41
2023-03-26T11:00:37.771Z,58.19
2023-03-26T11:01:37.787Z,58.74
2023-03-26T11:02:37.738Z,59.19
2023-03-26T11:03:37.714Z,60.65
2023-03-26T11:04:37.708Z,59.62
2023-03-26T11:05:37.737Z,59.78
2023-03-26T11:06:37.686Z,61.39
2023-03-26T11:07:37.672Z,59.99
2023-03-26T11:08:37.651Z,60.61
2023-03-26T11:09:37.657Z,59.59
2023-03-26T11:10:37.649Z,58.43
2023-03-26T11:11:37.621Z,59.81
2023-03-26T11:12:37.596Z,61.14
2023-03-26T11:13:37.597Z,61.12
2023-03-26T11:14:37.588Z,60.75
2023-03-26T11:15:37.634Z,66.89
2023-03-26T11:16:37.576Z,64.26
2023-03-26T11:17:39.302Z,62.57
2023-03-26T11:18:37.531Z,60.05
2023-03-26T11:19:37.535Z,61.25
2023-03-26T11:20:37.547Z,60.41
2023-03-26T11:21:37.563Z,60.79
2023-03-26T11:22:37.524Z,60.80
2023-03-26T11:23:37.504Z,60.18
2023-03-26T11:24:37.483Z,60.44
2023-03-26T11:25:37.507Z,62.49
2023-03-26T11:26:38.897Z,61.80
2023-03-26T11:27:37.484Z,63.39
2023-03-26T11:28:37.436Z,63.36
2023-03-26T11:29:37.445Z,65.21
2023-03-26T11:30:37.429Z,66.01
2023-03-26T11:31:37.472Z,65.40
2023-03-26T11:32:37.433Z,64.01
2023-03-26T11:33:37.403Z,64.94
2023-03-26T11:34:38.413Z,63.66
2023-03-26T11:35:41.211Z,65.84
2023-03-26T11:36:37.371Z,64.58
2023-03-26T11:37:37.331Z,61.05
2023-03-26T11:38:37.560Z,59.52
2023-03-26T11:39:37.325Z,60.12
2023-03-26T11:40:37.314Z,58.63
2023-03-26T11:41:37.328Z,58.84
2023-03-26T11:42:37.331Z,61.00
2023-03-26T11:43:37.296Z,63.34
2023-03-26T11:44:37.273Z,62.09
2023-03-26T11:45:37.330Z,59.21
2023-03-26T11:46:37.319Z,60.11
2023-03-26T11:47:37.313Z,57.82
2023-03-26T11:48:37.252Z,60.60
2023-03-26T11:49:37.225Z,60.02
2023-03-26T11:50:37.208Z,59.79
2023-03-26T11:51:37.227Z,59.70
2023-03-26T11:52:37.280Z,58.44
2023-03-26T11:53:37.222Z,61.21
2023-03-26T11:54:37.188Z,60.92
2023-03-26T11:55:37.200Z,61.26
2023-03-26T11:56:37.191Z,63.45
2023-03-26T11:57:37.176Z,64.66
2023-03-26T11:58:37.160Z,63.98
2023-03-26T11:59:49.034Z,60.57
2023-03-26T12:00:39.117Z,59.96
2023-03-26T12:01:37.167Z,61.42
2023-03-26T12:02:37.184Z,59.87
2023-03-26T12:03:37.140Z,59.74
2023-03-26T12:04:37.118Z,59.95
2023-03-26T12:05:37.067Z,60.31
2023-03-26T12:06:37.143Z,60.42
2023-03-26T12:07:37.020Z,63.91
2023-03-26T12:08:37.030Z,61.95
2023-03-26T12:09:37.011Z,61.76
2023-03-26T12:10:37.015Z,63.11
2023-03-26T12:11:37.023Z,64.16
2023-03-26T12:12:38.006Z,62.89
2023-03-26T12:13:37.002Z,62.39
2023-03-26T12:14:36.975Z,61.56
2023-03-26T12:15:36.951Z,60.08
2023-03-26T12:16:36.967Z,57.23
2023-03-26T12:17:36.914Z,57.63
2023-03-26T12:18:36.911Z,59.52
2023-03-26T12:19:36.905Z,60.24
2023-03-26T12:20:36.918Z,58.58
2023-03-26T12:21:36.907Z,56.36
2023-03-26T12:22:36.859Z,56.92
2023-03-26T12:23:36.860Z,54.93
2023-03-26T12:24:36.865Z,56.06
2023-03-26T12:25:36.853Z,55.61
2023-03-26T12:26:36.899Z,50.30
2023-03-26T12:27:36.803Z,48.71
2023-03-26T12:28:36.821Z,51.28
2023-03-26T12:29:36.797Z,54.35
2023-03-26T12:30:36.876Z,52.77
2023-03-26T12:31:36.846Z,50.81
2023-03-26T12:32:45.845Z,51.87
2023-03-26T12:33:38.751Z,47.24
2023-03-26T12:34:36.732Z,51.40
2023-03-26T12:35:36.831Z,48.62
2023-03-26T12:36:36.762Z,47.34
2023-03-26T12:37:36.748Z,46.70
2023-03-26T12:38:36.718Z,50.90
2023-03-26T12:40:07.471Z,53.05
2023-03-26T12:40:37.702Z,51.60
2023-03-26T12:43:51.654Z,47.33
2023-03-26T12:44:50.407Z,49.47
2023-03-26T12:44:54.325Z,45.85
2023-03-26T12:44:54.487Z,53.23
2023-03-26T12:45:37.664Z,46.57
2023-03-26T12:47:56.942Z,49.42
2023-03-26T12:47:57.773Z,46.41
2023-03-26T12:48:37.783Z,47.85
2023-03-26T12:49:36.674Z,47.57
2023-03-26T12:50:36.691Z,49.85
2023-03-26T12:51:36.583Z,47.91
2023-03-26T12:52:36.557Z,49.38
2023-03-26T12:53:36.561Z,47.29
2023-03-26T12:54:37.544Z,48.77